Hc Nadja Maria — V2AV4 — position and weather

sailwx.info

Track history (hours):
 
Tides and Currents Weather Stations Pressure Air Temp Water Temp Dewpoint Dewpoint Depression Visibility Wind Speed Wind Dir Waves Ship Positions

Hc Nadja Maria

Last reported at 2016-Nov-22 22:23 UTC. Time now 2016-Dec-05 08:26 UTC.
Position N 38°55' W 010°06'.
Warning: this ship's position is 12 days out of date.

Length 130 m; draft 5 m.

Type: Cargo ship. MMSI: 304204000.

Date/timePositionNaut miles runAvg speedWind from/ knotsBaromVisibWave heightAir tempDewpointWater temp
2016-Nov-22 22:23N 38°55' W 010°06'  
2016-Nov-20 04:26N 49°44' W 003°40'5 5.2
2016-Nov-20 03:31N 49°48' W 003°35'11 5.6
2016-Nov-20 01:33N 49°54' W 003°21'17 8.8
2016-Nov-19 23:33N 49°60' W 002°55'1110.6
2016-Nov-19 22:32N 50°03' W 002°39'8313.8
2016-Nov-19 16:32N 50°26' W 000°34'2814.0
2016-Nov-19 14:33N 50°34' E 000°07'6513.1
2016-Nov-19 09:34N 51°08' E 001°35'2512.3
2016-Nov-19 07:33N 51°24' E 002°05'2412.0
2016-Nov-19 05:33N 51°23' E 002°44'1110.9
2016-Nov-19 04:34N 51°24' E 003°01'1211.8
2016-Nov-19 03:33N 51°24' E 003°20'1010.2
2016-Nov-19 02:33N 51°26' E 003°36'1211.5
2016-Nov-19 01:33N 51°21' E 003°53'8 7.8
2016-Nov-19 00:33N 51°22' E 004°05'1010.3
2016-Nov-18 23:34N 51°17' E 004°19'3 1.0
2016-Nov-18 20:32N 51°15' E 004°23'0 0.0
2016-Nov-18 18:32N 51°15' E 004°23'0 0.0
2016-Nov-18 17:32N 51°15' E 004°23'0 0.0
2016-Nov-18 14:32N 51°15' E 004°23'0 0.0
2016-Nov-18 12:32N 51°15' E 004°23'0 0.0
2016-Nov-18 11:32N 51°15' E 004°23'0 0.0
2016-Nov-18 09:32N 51°15' E 004°23'0 0.0
2016-Nov-18 07:32N 51°15' E 004°23'0 0.0
2016-Nov-18 05:32N 51°15' E 004°23'0 0.0
2016-Nov-18 04:32N 51°15' E 004°23'0 0.0
2016-Nov-18 01:32N 51°15' E 004°23'0 0.0
2016-Nov-18 00:32N 51°15' E 004°23'0 0.0
2016-Nov-17 23:32N 51°15' E 004°23'0 0.0
2016-Nov-17 22:32N 51°15' E 004°23'0 0.0
2016-Nov-17 21:32N 51°15' E 004°23'0 0.0
2016-Nov-17 19:32N 51°15' E 004°23'0 0.0
2016-Nov-17 18:32N 51°15' E 004°23'0 0.0
2016-Nov-17 14:32N 51°15' E 004°23'0 0.0
2016-Nov-17 13:32N 51°15' E 004°23'0 0.0
2016-Nov-17 12:32N 51°15' E 004°23'0 0.0
2016-Nov-17 11:32N 51°15' E 004°23'0 0.1
2016-Nov-17 08:29N 51°15' E 004°22'0 0.0
2016-Nov-17 06:32N 51°15' E 004°22'0 0.0
2016-Nov-17 02:32N 51°15' E 004°22'0 0.0
2016-Nov-16 23:32N 51°15' E 004°22'0 0.0
2016-Nov-16 22:29N 51°15' E 004°22'0 0.0
2016-Nov-16 20:32N 51°15' E 004°22'0 0.0
2016-Nov-16 19:32N 51°15' E 004°22'0 0.0
2016-Nov-16 18:32N 51°15' E 004°22'0 0.0
2016-Nov-16 17:32N 51°15' E 004°22'0 0.0
2016-Nov-16 16:26N 51°15' E 004°22'11 2.7
2016-Nov-16 12:22N 51°24' E 004°12'25 8.8
2016-Nov-16 09:34N 51°27' E 003°33'1413.9
2016-Nov-16 08:33N 51°38' E 003°20'9 9.1
2016-Nov-16 07:33N 51°47' E 003°15'29 9.7
2016-Nov-16 04:33N 52°04' E 003°53'1110.7
2016-Nov-16 03:33N 51°58' E 004°08'10 9.7
2016-Nov-16 02:33N 51°52' E 004°20'8 8.1
2016-Nov-16 01:34N 51°50' E 004°33'8 1.9
2016-Nov-15 21:20N 51°42' E 004°37'0 0.0
2016-Nov-15 13:32N 51°42' E 004°37'0 0.0
2016-Nov-15 12:17N 51°42' E 004°37'0 0.0
2016-Nov-15 11:26N 51°42' E 004°37'0 0.0
2016-Nov-15 10:26N 51°42' E 004°37'0 0.0
2016-Nov-15 07:08N 51°42' E 004°37'0 0.0
2016-Nov-15 05:32N 51°42' E 004°37'0 0.0
2016-Nov-15 02:26N 51°42' E 004°37'0 0.0
2016-Nov-15 00:32N 51°42' E 004°37'0 0.0
2016-Nov-13 23:33N 51°42' E 004°37'  
Track history (hours):
 
Tides and Currents Weather Stations Pressure Air Temp Water Temp Dewpoint Dewpoint Depression Visibility Wind Speed Wind Dir Waves Ship Positions

Hc Nadja Maria

Last reported at 2016-Nov-22 22:23 UTC. Time now 2016-Dec-05 08:26 UTC.
Position N 38°55' W 010°06'.
Warning: this ship's position is 12 days out of date.

Length 130 m; draft 5 m.

Type: Cargo ship. MMSI: 304204000.

Date/timePositionNaut miles runAvg speedWind from/ knotsBaromVisibWave heightAir tempDewpointWater temp
2016-Nov-22 22:23N 38°55' W 010°06'  
2016-Nov-20 04:26N 49°44' W 003°40'5 5.2
2016-Nov-20 03:31N 49°48' W 003°35'11 5.6
2016-Nov-20 01:33N 49°54' W 003°21'17 8.8
2016-Nov-19 23:33N 49°60' W 002°55'1110.6
2016-Nov-19 22:32N 50°03' W 002°39'8313.8
2016-Nov-19 16:32N 50°26' W 000°34'2814.0
2016-Nov-19 14:33N 50°34' E 000°07'6513.1
2016-Nov-19 09:34N 51°08' E 001°35'2512.3
2016-Nov-19 07:33N 51°24' E 002°05'2412.0
2016-Nov-19 05:33N 51°23' E 002°44'1110.9
2016-Nov-19 04:34N 51°24' E 003°01'1211.8
2016-Nov-19 03:33N 51°24' E 003°20'1010.2
2016-Nov-19 02:33N 51°26' E 003°36'1211.5
2016-Nov-19 01:33N 51°21' E 003°53'8 7.8
2016-Nov-19 00:33N 51°22' E 004°05'1010.3
2016-Nov-18 23:34N 51°17' E 004°19'3 1.0
2016-Nov-18 20:32N 51°15' E 004°23'0 0.0
2016-Nov-18 18:32N 51°15' E 004°23'0 0.0
2016-Nov-18 17:32N 51°15' E 004°23'0 0.0
2016-Nov-18 14:32N 51°15' E 004°23'0 0.0
2016-Nov-18 12:32N 51°15' E 004°23'0 0.0
2016-Nov-18 11:32N 51°15' E 004°23'0 0.0
2016-Nov-18 09:32N 51°15' E 004°23'0 0.0
2016-Nov-18 07:32N 51°15' E 004°23'0 0.0
2016-Nov-18 05:32N 51°15' E 004°23'0 0.0
2016-Nov-18 04:32N 51°15' E 004°23'0 0.0
2016-Nov-18 01:32N 51°15' E 004°23'0 0.0
2016-Nov-18 00:32N 51°15' E 004°23'0 0.0
2016-Nov-17 23:32N 51°15' E 004°23'0 0.0
2016-Nov-17 22:32N 51°15' E 004°23'0 0.0
2016-Nov-17 21:32N 51°15' E 004°23'0 0.0
2016-Nov-17 19:32N 51°15' E 004°23'0 0.0
2016-Nov-17 18:32N 51°15' E 004°23'0 0.0
2016-Nov-17 14:32N 51°15' E 004°23'0 0.0
2016-Nov-17 13:32N 51°15' E 004°23'0 0.0
2016-Nov-17 12:32N 51°15' E 004°23'0 0.0
2016-Nov-17 11:32N 51°15' E 004°23'0 0.1
2016-Nov-17 08:29N 51°15' E 004°22'0 0.0
2016-Nov-17 06:32N 51°15' E 004°22'0 0.0
2016-Nov-17 02:32N 51°15' E 004°22'0 0.0
2016-Nov-16 23:32N 51°15' E 004°22'0 0.0
2016-Nov-16 22:29N 51°15' E 004°22'0 0.0
2016-Nov-16 20:32N 51°15' E 004°22'0 0.0
2016-Nov-16 19:32N 51°15' E 004°22'0 0.0
2016-Nov-16 18:32N 51°15' E 004°22'0 0.0
2016-Nov-16 17:32N 51°15' E 004°22'0 0.0
2016-Nov-16 16:26N 51°15' E 004°22'11 2.7
2016-Nov-16 12:22N 51°24' E 004°12'25 8.8
2016-Nov-16 09:34N 51°27' E 003°33'1413.9
2016-Nov-16 08:33N 51°38' E 003°20'9 9.1
2016-Nov-16 07:33N 51°47' E 003°15'29 9.7
2016-Nov-16 04:33N 52°04' E 003°53'1110.7
2016-Nov-16 03:33N 51°58' E 004°08'10 9.7
2016-Nov-16 02:33N 51°52' E 004°20'8 8.1
2016-Nov-16 01:34N 51°50' E 004°33'8 1.9
2016-Nov-15 21:20N 51°42' E 004°37'0 0.0
2016-Nov-15 13:32N 51°42' E 004°37'0 0.0
2016-Nov-15 12:17N 51°42' E 004°37'0 0.0
2016-Nov-15 11:26N 51°42' E 004°37'0 0.0
2016-Nov-15 10:26N 51°42' E 004°37'0 0.0
2016-Nov-15 07:08N 51°42' E 004°37'0 0.0
2016-Nov-15 05:32N 51°42' E 004°37'0 0.0
2016-Nov-15 02:26N 51°42' E 004°37'0 0.0
2016-Nov-15 00:32N 51°42' E 004°37'0 0.0
2016-Nov-13 23:33N 51°42' E 004°37'  

Dump ship's entire track history